createdAt,value
2017-06-20T00:00:36.964Z,0
2017-06-20T00:01:46.996Z,0
2017-06-20T00:02:57.380Z,0
2017-06-20T00:04:07.722Z,0
2017-06-20T00:05:17.760Z,0
2017-06-20T00:06:28.132Z,0
2017-06-20T00:07:38.530Z,0
2017-06-20T00:08:48.619Z,0
2017-06-20T00:09:58.964Z,0
2017-06-20T00:11:09.308Z,0
2017-06-20T00:12:19.656Z,0
2017-06-20T00:13:30.011Z,0
2017-06-20T00:14:40.411Z,0
2017-06-20T00:15:50.762Z,0
2017-06-20T00:17:01.122Z,0
2017-06-20T00:18:11.170Z,0
2017-06-20T00:19:21.210Z,0
2017-06-20T00:20:31.598Z,0
2017-06-20T00:21:41.329Z,0
2017-06-20T00:22:51.684Z,0
2017-06-20T00:24:01.714Z,0
2017-06-20T00:25:12.076Z,0
2017-06-20T00:26:22.160Z,0
2017-06-20T00:27:32.193Z,0
2017-06-20T00:28:42.542Z,0
2017-06-20T00:29:52.893Z,0
2017-06-20T00:31:03.245Z,0
2017-06-20T00:32:13.278Z,0
2017-06-20T00:33:23.308Z,0
2017-06-20T00:34:33.337Z,0
2017-06-20T00:35:43.691Z,0
2017-06-20T00:36:54.034Z,0
2017-06-20T00:38:04.069Z,0
2017-06-20T00:39:14.412Z,0
2017-06-20T00:40:24.758Z,0
2017-06-20T00:41:35.089Z,0
2017-06-20T00:42:45.146Z,0
2017-06-20T00:43:55.557Z,0
2017-06-20T00:45:05.901Z,0
2017-06-20T00:46:16.248Z,0
2017-06-20T00:47:26.604Z,0
2017-06-20T00:48:36.942Z,0
2017-06-20T00:49:47.023Z,0
2017-06-20T00:50:57.056Z,0
2017-06-20T00:52:07.402Z,0
2017-06-20T00:53:17.758Z,0
2017-06-20T00:54:28.109Z,0
2017-06-20T00:55:38.495Z,0
2017-06-20T00:56:48.534Z,0
2017-06-20T00:57:58.870Z,0
2017-06-20T00:59:09.214Z,0
2017-06-20T01:00:19.254Z,0
2017-06-20T01:01:29.646Z,0
2017-06-20T01:02:40.032Z,0
2017-06-20T01:03:50.069Z,0
2017-06-20T01:05:00.401Z,0
2017-06-20T01:06:10.137Z,0
2017-06-20T01:07:20.534Z,0
2017-06-20T01:08:30.892Z,0
2017-06-20T01:09:40.955Z,0
2017-06-20T01:10:51.296Z,0
2017-06-20T01:12:01.651Z,0
2017-06-20T01:13:11.733Z,0
2017-06-20T01:14:22.061Z,0
2017-06-20T01:15:32.407Z,0
2017-06-20T01:16:42.758Z,0
2017-06-20T01:17:53.106Z,0
2017-06-20T01:19:03.458Z,0
2017-06-20T01:20:12.869Z,0
2017-06-20T01:21:22.908Z,0
2017-06-20T01:22:33.253Z,0
2017-06-20T01:23:43.275Z,0
2017-06-20T01:24:53.687Z,0
2017-06-20T01:26:04.047Z,0
2017-06-20T01:27:14.396Z,0
2017-06-20T01:28:24.736Z,0
2017-06-20T01:29:35.090Z,0
2017-06-20T01:30:45.194Z,0
2017-06-20T01:31:55.532Z,0
2017-06-20T01:33:05.578Z,0
2017-06-20T01:34:15.292Z,0
2017-06-20T01:35:25.319Z,0
2017-06-20T01:36:35.408Z,0
2017-06-20T01:37:45.445Z,0
2017-06-20T01:38:55.489Z,0
2017-06-20T01:40:05.538Z,0
2017-06-20T01:41:15.883Z,0
2017-06-20T01:42:25.978Z,0
2017-06-20T01:43:36.021Z,0
2017-06-20T01:44:46.368Z,0
2017-06-20T01:45:56.720Z,0
2017-06-20T01:47:07.073Z,0
2017-06-20T01:48:17.432Z,0
2017-06-20T01:49:27.775Z,0
2017-06-20T01:50:38.119Z,0
2017-06-20T01:51:48.452Z,0
2017-06-20T01:52:58.798Z,0
2017-06-20T01:54:08.866Z,0
2017-06-20T01:55:19.211Z,0
2017-06-20T01:56:28.938Z,0
2017-06-20T01:57:38.960Z,0
2017-06-20T01:58:49.310Z,0
2017-06-20T01:59:59.071Z,0
2017-06-20T02:01:09.107Z,0
2017-06-20T02:02:19.453Z,0
2017-06-20T02:03:29.815Z,0
2017-06-20T02:04:40.176Z,0
2017-06-20T02:05:50.585Z,0
2017-06-20T02:07:00.939Z,0
2017-06-20T02:08:11.283Z,0
2017-06-20T02:09:21.632Z,0
2017-06-20T02:10:31.671Z,4
2017-06-20T02:11:41.753Z,4
2017-06-20T02:12:52.099Z,0
2017-06-20T02:14:02.130Z,0
2017-06-20T02:15:12.501Z,4
2017-06-20T02:16:22.839Z,4
2017-06-20T02:17:32.906Z,4
2017-06-20T02:18:43.243Z,4
2017-06-20T02:19:53.585Z,4
2017-06-20T02:21:03.623Z,8
2017-06-20T02:22:13.653Z,4
2017-06-20T02:23:23.702Z,4
2017-06-20T02:24:34.069Z,8
2017-06-20T02:25:44.436Z,8
2017-06-20T02:26:54.781Z,12
2017-06-20T02:28:05.134Z,16
2017-06-20T02:29:15.523Z,16
2017-06-20T02:30:25.855Z,16
2017-06-20T02:31:36.217Z,20
2017-06-20T02:32:46.572Z,24
2017-06-20T02:33:56.929Z,28
2017-06-20T02:35:07.024Z,32
2017-06-20T02:36:17.368Z,36
2017-06-20T02:37:27.717Z,40
2017-06-20T02:38:37.755Z,44
2017-06-20T02:39:48.111Z,48
2017-06-20T02:40:58.512Z,60
2017-06-20T02:42:08.867Z,64
2017-06-20T02:43:19.216Z,76
2017-06-20T02:44:29.566Z,84
2017-06-20T02:45:39.920Z,92
2017-06-20T02:46:50.310Z,100
2017-06-20T02:48:00.650Z,116
2017-06-20T02:49:10.994Z,128
2017-06-20T02:50:21.344Z,140
2017-06-20T02:51:31.370Z,152
2017-06-20T02:52:41.135Z,168
2017-06-20T02:53:51.462Z,184
2017-06-20T02:55:01.799Z,200
2017-06-20T02:56:12.145Z,220
2017-06-20T02:57:22.167Z,236
2017-06-20T02:58:32.558Z,260
2017-06-20T02:59:42.601Z,276
2017-06-20T03:00:52.941Z,300
2017-06-20T03:32:48.874Z,1068
2017-06-20T03:33:58.899Z,1096
2017-06-20T03:35:09.236Z,1124
2017-06-20T03:36:19.578Z,1156
2017-06-20T03:37:29.975Z,1180
2017-06-20T03:38:40.361Z,1212
2017-06-20T03:39:50.385Z,1240
2017-06-20T03:41:00.713Z,1268
2017-06-20T03:42:11.053Z,1296
2017-06-20T03:43:21.388Z,1320
2017-06-20T03:44:31.719Z,1352
2017-06-20T03:45:42.069Z,1376
2017-06-20T03:46:52.105Z,1404
2017-06-20T03:48:02.433Z,1428
2017-06-20T03:49:12.788Z,1524
2017-06-20T03:50:23.126Z,2148
2017-06-20T03:51:33.479Z,2780
2017-06-20T03:52:43.838Z,2688
2017-06-20T03:53:54.199Z,2020
2017-06-20T03:55:04.545Z,1760
2017-06-20T03:56:14.314Z,1632
2017-06-20T03:57:24.672Z,1652
2017-06-20T03:58:35.010Z,1672
2017-06-20T03:59:45.046Z,1692
2017-06-20T04:00:55.387Z,1716
2017-06-20T04:02:05.802Z,1740
2017-06-20T04:03:16.153Z,1764
2017-06-20T04:04:26.498Z,1792
2017-06-20T04:05:36.849Z,1824
2017-06-20T04:06:47.197Z,1860
2017-06-20T04:07:57.545Z,1892
2017-06-20T04:09:07.893Z,1924
2017-06-20T04:10:18.242Z,1956
2017-06-20T04:11:28.598Z,1984
2017-06-20T04:12:38.939Z,2016
2017-06-20T04:13:49.336Z,2048
2017-06-20T04:14:59.688Z,2084
2017-06-20T04:16:10.048Z,2120
2017-06-20T04:17:20.409Z,2160
2017-06-20T04:18:30.456Z,5104
2017-06-20T04:19:40.530Z,15392
2017-06-20T04:20:50.862Z,20096
2017-06-20T04:22:01.205Z,20288
2017-06-20T04:23:11.561Z,19936
2017-06-20T04:24:21.902Z,19584
2017-06-20T04:25:31.991Z,19552
2017-06-20T04:26:42.022Z,19424
2017-06-20T04:27:52.383Z,19744
2017-06-20T04:29:02.726Z,19744
2017-06-20T04:30:13.067Z,19520
2017-06-20T04:31:23.420Z,19712
2017-06-20T04:32:33.775Z,19136
2017-06-20T04:33:44.123Z,19200
2017-06-20T04:34:54.174Z,19072
2017-06-20T04:36:04.207Z,19392
2017-06-20T04:37:14.312Z,19360
2017-06-20T04:38:24.662Z,18912
2017-06-20T04:39:35.019Z,19168
2017-06-20T04:40:45.368Z,19328
2017-06-20T04:41:55.714Z,19264
2017-06-20T04:43:05.795Z,19232
2017-06-20T04:44:16.152Z,19328
2017-06-20T04:45:26.482Z,19360
2017-06-20T04:46:36.835Z,18976
2017-06-20T04:47:47.184Z,18688
2017-06-20T04:48:57.581Z,18656
2017-06-20T04:50:07.926Z,19008
2017-06-20T04:51:17.983Z,18880
2017-06-20T04:52:28.329Z,18464
2017-06-20T04:53:38.680Z,18368
2017-06-20T04:54:48.734Z,16864
2017-06-20T04:55:59.080Z,16224
2017-06-20T04:57:09.117Z,16544
2017-06-20T04:58:19.462Z,16608
2017-06-20T04:59:29.851Z,16352
2017-06-20T05:00:40.250Z,16128
2017-06-20T05:01:50.604Z,15936
2017-06-20T05:03:00.947Z,15648
2017-06-20T05:04:10.677Z,15808
2017-06-20T05:05:21.031Z,16032
2017-06-20T05:06:31.430Z,16096
2017-06-20T05:07:41.471Z,16128
2017-06-20T05:08:51.829Z,16064
2017-06-20T05:10:01.565Z,15968
2017-06-20T05:11:11.914Z,16256
2017-06-20T05:12:22.331Z,16416
2017-06-20T05:13:32.695Z,16256
2017-06-20T05:14:43.058Z,16064
2017-06-20T05:15:53.401Z,15968
2017-06-20T05:17:03.445Z,15936
2017-06-20T05:18:13.542Z,16032
2017-06-20T05:19:23.885Z,16128
2017-06-20T05:20:34.236Z,16352
2017-06-20T05:21:44.599Z,16416
2017-06-20T05:22:54.951Z,16192
2017-06-20T05:24:05.343Z,16064
2017-06-20T05:25:15.401Z,16544
2017-06-20T05:26:25.452Z,16736
2017-06-20T05:27:35.816Z,16576
2017-06-20T05:28:46.186Z,16416
2017-06-20T05:29:56.273Z,16256
2017-06-20T05:31:06.328Z,16288
2017-06-20T05:32:16.370Z,16288
2017-06-20T05:33:26.432Z,16000
2017-06-20T05:34:36.463Z,16064
2017-06-20T05:35:46.869Z,16256
2017-06-20T05:36:57.219Z,16192
2017-06-20T05:38:07.580Z,16224
2017-06-20T05:39:17.957Z,16352
2017-06-20T05:40:28.333Z,16192
2017-06-20T05:41:38.391Z,15872
2017-06-20T05:42:48.747Z,15968
2017-06-20T05:43:59.098Z,15808
2017-06-20T05:45:09.452Z,15776
2017-06-20T05:46:19.821Z,15872
2017-06-20T05:47:29.922Z,15680
2017-06-20T05:48:40.299Z,15392
2017-06-20T05:49:50.636Z,15360
2017-06-20T05:51:00.988Z,15488
2017-06-20T05:52:11.336Z,15680
2017-06-20T05:53:21.435Z,15616
2017-06-20T05:54:31.780Z,15680
2017-06-20T05:55:41.829Z,15648
2017-06-20T05:56:52.202Z,15360
2017-06-20T05:58:02.259Z,14944
2017-06-20T05:59:12.665Z,14816
2017-06-20T06:00:22.703Z,14848
2017-06-20T06:01:33.059Z,15136
2017-06-20T06:02:43.406Z,15104
2017-06-20T06:03:53.769Z,14816
2017-06-20T06:05:04.179Z,14752
2017-06-20T06:06:14.528Z,14484
2017-06-20T06:07:24.875Z,14332
2017-06-20T06:08:34.901Z,13984
2017-06-20T06:09:45.277Z,13792
2017-06-20T06:10:55.698Z,13740
2017-06-20T06:12:05.431Z,13588
2017-06-20T06:13:15.793Z,13416
2017-06-20T06:14:26.144Z,13256
2017-06-20T06:15:36.486Z,13160
2017-06-20T06:16:46.835Z,12988
2017-06-20T06:17:57.196Z,12848
2017-06-20T06:19:07.244Z,12772
2017-06-20T06:20:17.587Z,12688
2017-06-20T06:21:27.957Z,12668
2017-06-20T06:22:38.302Z,12668
2017-06-20T06:23:48.657Z,12424
2017-06-20T06:24:59.009Z,12048
2017-06-20T06:26:09.375Z,11784
2017-06-20T06:27:19.432Z,11688
2017-06-20T06:28:29.526Z,11600
2017-06-20T06:29:39.880Z,11568
2017-06-20T06:30:50.249Z,11408
2017-06-20T06:32:00.603Z,11296
2017-06-20T06:33:10.956Z,11260
2017-06-20T06:34:21.048Z,11116
2017-06-20T06:35:31.089Z,11020
2017-06-20T06:36:41.136Z,10908
2017-06-20T06:37:51.508Z,10764
2017-06-20T06:39:01.888Z,10668
2017-06-20T06:40:12.468Z,10560
2017-06-20T06:41:22.820Z,10448
2017-06-20T06:42:33.161Z,10324
2017-06-20T06:43:42.887Z,10164
2017-06-20T06:44:52.948Z,10092
2017-06-20T06:46:03.043Z,9928
2017-06-20T06:47:13.393Z,9784
2017-06-20T06:48:23.745Z,9636
2017-06-20T06:49:33.474Z,9496
2017-06-20T06:50:43.524Z,9356
2017-06-20T06:51:52.985Z,9216
2017-06-20T06:53:03.041Z,9064
2017-06-20T06:54:13.093Z,8940
2017-06-20T06:55:23.447Z,8768
2017-06-20T06:56:33.803Z,8648
2017-06-20T06:57:44.203Z,8520
2017-06-20T06:58:54.240Z,8364
2017-06-20T07:00:04.605Z,8232
2017-06-20T07:01:14.954Z,8104
2017-06-20T07:02:25.301Z,7928
2017-06-20T07:03:35.409Z,7768
2017-06-20T07:04:45.764Z,7616
2017-06-20T07:05:56.122Z,7460
2017-06-20T07:07:06.482Z,7304
2017-06-20T07:08:16.519Z,7160
2017-06-20T07:09:26.297Z,6984
2017-06-20T07:10:36.681Z,6872
2017-06-20T07:11:47.049Z,6716
2017-06-20T07:12:57.408Z,6572
2017-06-20T07:14:07.454Z,6424
2017-06-20T07:15:17.861Z,6256
2017-06-20T07:16:28.247Z,5680
2017-06-20T07:17:38.606Z,5084
2017-06-20T07:18:48.981Z,4924
2017-06-20T07:19:59.029Z,4900
2017-06-20T07:21:09.117Z,4900
2017-06-20T07:22:19.656Z,4924
2017-06-20T07:23:30.391Z,4932
2017-06-20T07:24:40.766Z,4940
2017-06-20T07:25:50.878Z,4948
2017-06-20T07:27:01.300Z,4964
2017-06-20T07:28:11.658Z,4984
2017-06-20T07:29:22.047Z,5000
2017-06-20T07:30:32.092Z,5012
2017-06-20T07:31:42.501Z,5024
2017-06-20T07:32:52.638Z,5032
2017-06-20T07:34:03.024Z,5048
2017-06-20T07:35:13.280Z,5060
2017-06-20T07:36:23.674Z,5060
2017-06-20T07:37:34.095Z,5064
2017-06-20T07:38:44.522Z,5068
2017-06-20T07:39:55.546Z,5084
2017-06-20T07:41:05.944Z,5100
2017-06-20T07:42:16.351Z,5096
2017-06-20T07:43:26.786Z,5124
2017-06-20T07:44:36.897Z,5136
2017-06-20T07:45:47.274Z,5136
2017-06-20T07:46:57.338Z,5156
2017-06-20T07:48:07.719Z,5192
2017-06-20T07:49:18.159Z,5216
2017-06-20T07:50:28.595Z,5228
2017-06-20T07:51:38.985Z,5244
2017-06-20T07:52:49.558Z,5248
2017-06-20T07:54:01.633Z,5256
2017-06-20T07:55:13.071Z,5296
2017-06-20T07:56:23.211Z,5308
2017-06-20T07:57:33.590Z,5332
2017-06-20T07:58:43.654Z,5356
2017-06-20T07:59:54.058Z,5384
2017-06-20T08:01:04.438Z,5404
2017-06-20T08:02:14.879Z,5416
2017-06-20T08:03:25.243Z,5432
2017-06-20T08:04:35.638Z,5436
2017-06-20T08:05:46.005Z,5468
2017-06-20T08:06:56.366Z,5472
2017-06-20T08:08:06.435Z,5492
2017-06-20T08:09:16.826Z,5504
2017-06-20T08:10:27.209Z,5532
2017-06-20T08:11:37.284Z,5548
2017-06-20T08:12:47.347Z,5580
2017-06-20T08:13:57.397Z,5596
2017-06-20T08:15:07.798Z,5624
2017-06-20T08:16:18.164Z,5644
2017-06-20T08:17:28.549Z,5652
2017-06-20T08:18:38.905Z,5664
2017-06-20T08:19:49.326Z,5680
2017-06-20T08:20:59.699Z,5704
2017-06-20T08:22:10.077Z,5716
2017-06-20T08:23:20.446Z,5716
2017-06-20T08:24:30.476Z,5720
2017-06-20T08:25:40.572Z,5744
2017-06-20T08:26:50.635Z,5748
2017-06-20T08:28:00.710Z,5764
2017-06-20T08:29:10.756Z,5780
2017-06-20T08:30:21.140Z,5796
2017-06-20T08:31:31.561Z,5820
2017-06-20T08:32:41.923Z,5824
2017-06-20T08:33:51.965Z,5824
2017-06-20T08:35:02.320Z,5860
2017-06-20T08:36:12.353Z,5852
2017-06-20T08:37:22.470Z,5868
2017-06-20T08:38:32.825Z,5900
2017-06-20T08:39:42.564Z,5900
2017-06-20T08:40:53.008Z,5892
2017-06-20T08:42:03.102Z,5892
2017-06-20T08:43:13.171Z,5932
2017-06-20T08:44:23.562Z,5928
2017-06-20T08:45:33.929Z,5936
2017-06-20T08:46:44.294Z,5924
2017-06-20T08:47:54.680Z,5940
2017-06-20T08:49:05.109Z,5928
2017-06-20T08:50:15.498Z,5948
2017-06-20T08:51:25.879Z,5968
2017-06-20T08:52:35.939Z,5980
2017-06-20T08:53:46.295Z,5984
2017-06-20T08:54:56.718Z,5996
2017-06-20T08:56:06.766Z,6004
2017-06-20T08:57:16.560Z,6016
2017-06-20T08:58:26.387Z,6032
2017-06-20T08:59:36.796Z,6040
2017-06-20T09:00:47.521Z,6036
2017-06-20T09:01:57.885Z,6028
2017-06-20T09:03:07.620Z,6024
2017-06-20T09:04:17.756Z,6032
2017-06-20T09:05:27.804Z,6044
2017-06-20T09:06:38.215Z,6044
2017-06-20T09:07:48.613Z,6076
2017-06-20T09:08:58.991Z,6096
2017-06-20T09:10:09.349Z,6100
2017-06-20T09:11:19.441Z,6108
2017-06-20T09:12:29.496Z,6096
2017-06-20T09:13:39.561Z,6120
2017-06-20T09:14:49.598Z,6152
2017-06-20T09:15:59.951Z,6180
2017-06-20T09:17:10.319Z,6176
2017-06-20T09:18:20.363Z,6176
2017-06-20T09:19:30.732Z,6172
2017-06-20T09:20:40.782Z,6184
2017-06-20T09:21:50.860Z,6244
2017-06-20T09:23:01.276Z,6228
2017-06-20T09:24:11.682Z,6232
2017-06-20T09:25:22.064Z,6276
2017-06-20T09:26:32.481Z,6276
2017-06-20T09:27:42.528Z,6280
2017-06-20T09:28:52.874Z,6284
2017-06-20T09:30:03.232Z,6320
2017-06-20T09:31:13.289Z,6300
2017-06-20T09:32:23.671Z,6328
2017-06-20T09:33:34.046Z,6396
2017-06-20T09:34:44.406Z,6440
2017-06-20T09:35:54.830Z,6468
2017-06-20T09:37:04.881Z,6432
2017-06-20T09:38:15.254Z,6476
2017-06-20T09:39:25.630Z,6508
2017-06-20T09:40:36.029Z,6532
2017-06-20T09:41:46.458Z,6500
2017-06-20T09:42:56.833Z,6476
2017-06-20T09:44:07.206Z,6440
2017-06-20T09:45:17.567Z,6484
2017-06-20T09:46:27.937Z,6576
2017-06-20T09:47:38.357Z,6608
2017-06-20T09:48:48.731Z,6640
2017-06-20T09:49:59.112Z,6644
2017-06-20T09:51:09.170Z,6660
2017-06-20T09:52:19.222Z,6656
2017-06-20T09:53:29.653Z,6672
2017-06-20T09:54:40.021Z,6680
2017-06-20T09:55:50.395Z,6720
2017-06-20T09:57:00.761Z,6748
2017-06-20T09:58:11.135Z,6780
2017-06-20T09:59:20.926Z,6780
2017-06-20T10:00:31.299Z,6828
2017-06-20T10:01:41.356Z,6860
2017-06-20T10:02:51.766Z,6864
2017-06-20T10:04:02.170Z,6868
2017-06-20T10:05:12.599Z,6900
2017-06-20T10:06:23.006Z,6900
2017-06-20T10:07:33.382Z,6920
2017-06-20T10:08:43.759Z,6948
2017-06-20T10:09:52.568Z,6944
2017-06-20T10:11:02.997Z,6984
2017-06-20T10:12:13.034Z,7020
2017-06-20T10:13:22.811Z,7000
2017-06-20T10:14:33.181Z,6996
2017-06-20T10:15:43.563Z,6988
2017-06-20T10:16:54.266Z,7004
2017-06-20T10:18:04.647Z,7036
2017-06-20T10:19:15.017Z,7084
2017-06-20T10:20:25.405Z,7144
2017-06-20T10:21:35.787Z,7140
2017-06-20T10:22:45.896Z,7100
2017-06-20T10:23:55.948Z,7120
2017-06-20T10:25:06.327Z,7112
2017-06-20T10:26:16.695Z,7116
2017-06-20T10:27:26.987Z,7116
2017-06-20T10:28:37.730Z,7116
2017-06-20T10:29:48.121Z,7104
2017-06-20T10:30:58.508Z,7132
2017-06-20T10:32:08.887Z,7136
2017-06-20T10:33:19.234Z,7216
2017-06-20T10:34:29.329Z,7240
2017-06-20T10:35:39.736Z,7228
2017-06-20T10:36:49.853Z,7272
2017-06-20T10:38:00.234Z,7296
2017-06-20T10:39:10.612Z,7304
2017-06-20T10:40:21.025Z,7288
2017-06-20T10:41:31.406Z,7372
2017-06-20T10:42:41.776Z,7396
2017-06-20T10:43:52.155Z,7392
2017-06-20T10:45:02.532Z,7356
2017-06-20T10:46:12.572Z,7384
2017-06-20T10:47:22.938Z,7140
2017-06-20T10:48:33.310Z,7072
2017-06-20T10:49:43.674Z,7272
2017-06-20T10:50:53.767Z,7392
2017-06-20T10:52:03.854Z,7420
2017-06-20T10:53:13.609Z,7464
2017-06-20T10:54:23.995Z,7472
2017-06-20T10:55:34.353Z,7508
2017-06-20T10:56:44.776Z,7532
2017-06-20T10:57:55.131Z,7516
2017-06-20T10:59:05.522Z,7524
2017-06-20T11:00:15.888Z,7564
2017-06-20T11:01:25.314Z,7576
2017-06-20T11:02:35.703Z,7628
2017-06-20T11:03:46.076Z,7628
2017-06-20T11:04:56.128Z,7628
2017-06-20T11:06:06.492Z,7628
2017-06-20T11:07:16.870Z,7612
2017-06-20T11:08:26.969Z,7640
2017-06-20T11:09:37.341Z,7640
2017-06-20T11:10:47.396Z,7656
2017-06-20T11:11:57.745Z,7668
2017-06-20T11:13:07.800Z,7692
2017-06-20T11:14:18.228Z,7708
2017-06-20T11:15:28.584Z,7676
2017-06-20T11:16:38.955Z,7668
2017-06-20T11:17:48.999Z,7652
2017-06-20T11:18:58.739Z,7748
2017-06-20T11:20:08.789Z,7760
2017-06-20T11:21:19.161Z,7752
2017-06-20T11:22:29.553Z,7756
2017-06-20T11:23:39.969Z,7776
2017-06-20T11:24:50.025Z,7764
2017-06-20T11:26:00.307Z,7788
2017-06-20T11:27:10.659Z,7772
2017-06-20T11:28:21.058Z,7796
2017-06-20T11:29:31.144Z,7784
2017-06-20T11:30:41.525Z,7788
2017-06-20T11:31:51.956Z,7812
2017-06-20T11:33:02.358Z,7780
2017-06-20T11:34:12.418Z,7812
2017-06-20T11:35:22.795Z,7832
2017-06-20T11:36:32.526Z,7824
2017-06-20T11:37:42.939Z,7832
2017-06-20T11:38:53.296Z,7840
2017-06-20T11:40:03.663Z,7840
2017-06-20T11:41:14.033Z,7820
2017-06-20T11:42:24.400Z,7816
2017-06-20T11:43:34.820Z,7812
2017-06-20T11:44:45.209Z,7872
2017-06-20T11:45:55.586Z,7832
2017-06-20T11:47:05.942Z,7760
2017-06-20T11:48:16.316Z,7780
2017-06-20T11:49:26.422Z,7840
2017-06-20T11:50:36.487Z,7868
2017-06-20T11:51:46.859Z,7860
2017-06-20T11:52:57.248Z,7856
2017-06-20T11:54:07.337Z,7880
2017-06-20T11:55:17.702Z,7868
2017-06-20T11:56:28.076Z,7884
2017-06-20T11:57:38.500Z,7868
2017-06-20T11:58:48.920Z,7912
2017-06-20T11:59:59.017Z,7884
2017-06-20T12:01:09.488Z,7888
2017-06-20T12:02:19.559Z,7856
2017-06-20T12:03:29.631Z,7880
2017-06-20T12:04:39.391Z,7868
2017-06-20T12:05:49.840Z,7864
2017-06-20T12:07:00.254Z,7868
2017-06-20T12:08:10.655Z,7840
2017-06-20T12:09:20.713Z,7876
2017-06-20T12:10:31.125Z,7880
2017-06-20T12:11:41.506Z,7820
2017-06-20T12:12:51.604Z,7864
2017-06-20T12:14:01.968Z,7844
2017-06-20T12:15:12.021Z,7840
2017-06-20T12:16:22.096Z,7904
2017-06-20T12:17:32.478Z,7940
2017-06-20T12:18:42.902Z,7900
2017-06-20T12:19:52.949Z,7868
2017-06-20T12:21:03.009Z,7848
2017-06-20T12:22:13.372Z,7812
2017-06-20T12:23:23.735Z,7760
2017-06-20T12:24:33.794Z,7796
2017-06-20T12:25:44.164Z,7744
2017-06-20T12:26:54.539Z,7764
2017-06-20T12:28:04.906Z,7788
2017-06-20T12:29:14.961Z,7736
2017-06-20T12:30:25.424Z,7688
2017-06-20T12:31:35.495Z,7744
2017-06-20T12:32:45.244Z,7764
2017-06-20T12:33:55.299Z,7768
2017-06-20T12:35:05.670Z,7784
2017-06-20T12:36:16.078Z,7780
2017-06-20T12:37:26.456Z,7804
2017-06-20T12:38:36.825Z,7776
2017-06-20T12:39:47.182Z,7700
2017-06-20T12:40:57.556Z,7688
2017-06-20T12:42:07.964Z,7676
2017-06-20T12:43:18.039Z,7712
2017-06-20T12:44:28.423Z,7712
2017-06-20T12:45:38.791Z,7640
2017-06-20T12:46:49.193Z,7692
2017-06-20T12:47:59.624Z,7668
2017-06-20T12:49:10.020Z,7684
2017-06-20T12:50:20.401Z,7712
2017-06-20T12:51:30.763Z,7716
2017-06-20T12:52:41.142Z,7636
2017-06-20T12:53:51.570Z,7608
2017-06-20T12:55:02.018Z,7508
2017-06-20T12:56:12.071Z,7464
2017-06-20T12:57:22.468Z,7464
2017-06-20T12:58:32.840Z,7472
2017-06-20T12:59:43.278Z,7508
2017-06-20T13:00:53.346Z,7420
2017-06-20T13:02:03.728Z,7432
2017-06-20T13:03:14.107Z,7464
2017-06-20T13:04:24.495Z,7420
2017-06-20T13:05:34.912Z,7432
2017-06-20T13:06:45.292Z,7368
2017-06-20T13:07:55.662Z,7392
2017-06-20T13:09:05.716Z,7396
2017-06-20T13:10:15.788Z,7384
2017-06-20T13:11:26.211Z,7432
2017-06-20T13:12:36.587Z,7432
2017-06-20T13:13:46.385Z,7396
2017-06-20T13:14:56.754Z,7400
2017-06-20T13:16:07.140Z,7436
2017-06-20T13:17:17.519Z,7452
2017-06-20T13:18:27.891Z,7448
2017-06-20T13:19:38.283Z,7424
2017-06-20T13:20:48.343Z,7344
2017-06-20T13:21:58.762Z,7256
2017-06-20T13:23:08.843Z,7312
2017-06-20T13:24:18.912Z,7248
2017-06-20T13:25:29.284Z,7296
2017-06-20T13:26:39.677Z,7292
2017-06-20T13:27:50.057Z,7236
2017-06-20T13:29:00.422Z,7260
2017-06-20T13:30:10.479Z,7176
2017-06-20T13:31:20.538Z,7144
2017-06-20T13:32:30.597Z,7168
2017-06-20T13:33:40.679Z,7168
2017-06-20T13:34:51.068Z,7144
2017-06-20T13:36:01.431Z,7080
2017-06-20T13:37:11.493Z,7112
2017-06-20T13:38:21.548Z,7124
2017-06-20T13:39:31.667Z,7144
2017-06-20T13:40:42.052Z,7160
2017-06-20T13:41:52.129Z,7160
2017-06-20T13:43:01.564Z,7172
2017-06-20T13:44:11.643Z,7160
2017-06-20T13:45:22.323Z,7084
2017-06-20T13:46:32.392Z,7076
2017-06-20T13:47:42.461Z,7064
2017-06-20T13:48:52.521Z,7040
2017-06-20T13:50:02.803Z,7040
2017-06-20T13:51:13.253Z,6988
2017-06-20T13:52:23.631Z,6988
2017-06-20T13:53:34.015Z,6984
2017-06-20T13:54:44.398Z,6988
2017-06-20T13:55:54.507Z,6976
2017-06-20T13:57:04.621Z,6960
2017-06-20T13:58:15.030Z,6848
2017-06-20T13:59:25.395Z,6816
2017-06-20T14:00:35.157Z,6796
2017-06-20T14:01:45.233Z,6784
2017-06-20T14:02:55.573Z,6784
2017-06-20T14:04:05.954Z,6784
2017-06-20T14:05:16.026Z,6796
2017-06-20T14:06:26.093Z,6772
2017-06-20T14:07:36.157Z,6824
2017-06-20T14:08:46.270Z,6808
2017-06-20T14:09:56.633Z,6784
2017-06-20T14:11:07.054Z,6788
2017-06-20T14:12:17.436Z,6712
2017-06-20T14:13:27.832Z,6720
2017-06-20T14:14:38.237Z,6708
2017-06-20T14:15:48.610Z,6672
2017-06-20T14:16:58.968Z,6632
2017-06-20T14:18:09.036Z,6644
2017-06-20T14:19:19.400Z,6616
2017-06-20T14:20:29.794Z,6660
2017-06-20T14:21:40.169Z,6664
2017-06-20T14:22:50.542Z,6648
2017-06-20T14:24:00.928Z,6632
2017-06-20T14:25:11.310Z,6604
2017-06-20T14:26:21.741Z,6628
2017-06-20T14:27:32.116Z,6628
2017-06-20T14:28:42.479Z,6616
2017-06-20T14:29:52.234Z,6572
2017-06-20T14:31:02.311Z,6548
2017-06-20T14:32:12.762Z,6532
2017-06-20T14:33:23.128Z,6560
2017-06-20T14:34:33.515Z,6524
2017-06-20T14:35:43.589Z,6532
2017-06-20T14:36:53.643Z,6464
2017-06-20T14:38:03.759Z,6384
2017-06-20T14:39:14.120Z,6344
2017-06-20T14:40:24.179Z,6252
2017-06-20T14:41:34.543Z,6332
2017-06-20T14:42:44.902Z,6364
2017-06-20T14:43:55.314Z,6384
2017-06-20T14:45:05.055Z,6372
2017-06-20T14:46:15.423Z,6388
2017-06-20T14:47:25.698Z,6372
2017-06-20T14:48:36.130Z,6252
2017-06-20T14:49:46.554Z,6240
2017-06-20T14:50:56.606Z,6188
2017-06-20T14:52:06.984Z,6208
2017-06-20T14:53:17.373Z,6220
2017-06-20T14:54:27.416Z,6228
2017-06-20T14:55:37.479Z,6244
2017-06-20T14:56:47.531Z,6212
2017-06-20T14:57:57.592Z,6176
2017-06-20T14:59:07.645Z,6164
2017-06-20T15:00:18.005Z,6128
2017-06-20T15:01:28.437Z,6116
2017-06-20T15:02:38.805Z,6120
2017-06-20T15:03:48.866Z,6120
2017-06-20T15:04:59.227Z,6120
2017-06-20T15:06:09.603Z,6104
2017-06-20T15:07:19.757Z,6068
2017-06-20T15:08:30.133Z,6056
2017-06-20T15:09:40.511Z,6036
2017-06-20T15:10:50.567Z,6024
2017-06-20T15:12:00.925Z,6000
2017-06-20T15:13:11.044Z,6004
2017-06-20T15:14:21.122Z,5996
2017-06-20T15:15:31.192Z,5968
2017-06-20T15:16:41.499Z,5968
2017-06-20T15:17:51.868Z,5956
2017-06-20T15:19:02.299Z,5948
2017-06-20T15:20:12.363Z,5916
2017-06-20T15:21:22.723Z,5920
2017-06-20T15:22:33.111Z,5900
2017-06-20T15:23:43.479Z,5876
2017-06-20T15:24:53.318Z,5896
2017-06-20T15:26:03.086Z,5920
2017-06-20T15:27:13.154Z,5876
2017-06-20T15:28:23.541Z,5852
2017-06-20T15:29:33.615Z,5840
2017-06-20T15:30:43.415Z,5852
2017-06-20T15:31:53.486Z,5836
2017-06-20T15:33:03.574Z,5844
2017-06-20T15:34:13.615Z,5872
2017-06-20T15:35:23.979Z,5880
2017-06-20T15:36:34.408Z,5876
2017-06-20T15:37:44.797Z,5864
2017-06-20T15:38:54.870Z,5816
2017-06-20T15:40:05.266Z,5760
2017-06-20T15:41:15.323Z,5728
2017-06-20T15:42:25.445Z,5688
2017-06-20T15:43:35.834Z,5644
2017-06-20T15:44:46.224Z,5604
2017-06-20T15:45:56.607Z,5564
2017-06-20T15:47:06.675Z,5544
2017-06-20T15:48:16.780Z,5560
2017-06-20T15:49:27.166Z,5572
2017-06-20T15:50:36.899Z,5576
2017-06-20T15:51:47.263Z,5572
2017-06-20T15:52:57.633Z,5556
2017-06-20T15:54:08.075Z,5548
2017-06-20T15:55:18.459Z,5532
2017-06-20T15:56:28.204Z,5512
2017-06-20T15:57:38.590Z,5476
2017-06-20T15:58:48.640Z,5456
2017-06-20T15:59:59.080Z,5416
2017-06-20T16:01:09.456Z,5400
2017-06-20T16:02:19.829Z,5412
2017-06-20T16:03:30.202Z,5412
2017-06-20T16:04:40.591Z,5392
2017-06-20T16:05:50.687Z,5360
2017-06-20T16:07:01.063Z,5328
2017-06-20T16:08:11.444Z,5296
2017-06-20T16:09:21.517Z,5296
2017-06-20T16:10:31.591Z,5284
2017-06-20T16:11:42.025Z,5252
2017-06-20T16:12:52.090Z,5216
2017-06-20T16:14:02.489Z,5208
2017-06-20T16:15:12.877Z,5188
2017-06-20T16:16:23.258Z,5176
2017-06-20T16:17:33.630Z,5180